Time;durP1;ratioP1;P1;durP2;ratioP2;P2;SDS_P1;SDS_P2;PMS_P1;PMS_P2;Temp;Humidity;BMP_temperature;BMP_pressure;BME280_temperature;BME280_humidity;BME280_pressure;Samples;Min_cycle;Max_cycle;Signal;HPM_P1;HPM_P2
2022/11/30 00:01:07;;;;;;;20.20;12.23;;;8.50;75.70;;;;;;5056265;28;20100;-65
2022/11/30 00:03:33;;;;;;;19.02;11.38;;;8.50;75.70;;;;;;5070110;28;20074;-63
2022/11/30 00:06:06;;;;;;;17.90;11.90;;;8.50;75.70;;;;;;5063570;28;20059;-62
2022/11/30 00:08:32;;;;;;;16.67;11.50;;;8.50;75.90;;;;;;5067241;28;20020;-65
2022/11/30 00:10:58;;;;;;;15.30;11.05;;;8.50;76.00;;;;;;5061082;28;20371;-63
2022/11/30 00:13:24;;;;;;;17.00;11.38;;;8.50;76.10;;;;;;5062818;28;20064;-64
2022/11/30 00:15:49;;;;;;;16.83;11.35;;;8.50;76.20;;;;;;5061149;28;20033;-65
2022/11/30 00:18:21;;;;;;;18.00;11.88;;;8.50;76.20;;;;;;5060588;28;20033;-65
2022/11/30 00:20:47;;;;;;;21.73;11.27;;;8.50;76.10;;;;;;5053474;28;20430;-64
2022/11/30 00:23:13;;;;;;;17.42;11.90;;;8.50;76.30;;;;;;5037358;28;20106;-65
2022/11/30 00:25:39;;;;;;;17.52;12.32;;;8.50;76.40;;;;;;5063547;28;20560;-64
2022/11/30 00:28:04;;;;;;;16.85;11.73;;;8.50;76.40;;;;;;5069348;28;20766;-65
2022/11/30 00:30:30;;;;;;;17.80;11.88;;;8.50;76.30;;;;;;5062734;28;20387;-64
2022/11/30 00:32:59;;;;;;;17.92;12.43;;;8.50;76.20;;;;;;5067117;28;20495;-65
2022/11/30 00:35:24;;;;;;;17.80;12.40;;;8.60;76.30;;;;;;5069476;28;20025;-64
2022/11/30 00:37:50;;;;;;;18.02;12.05;;;8.50;76.20;;;;;;5071253;28;20021;-64
2022/11/30 00:40:16;;;;;;;17.15;12.48;;;8.60;76.20;;;;;;5074712;28;20033;-65
2022/11/30 00:42:41;;;;;;;19.58;13.20;;;8.50;76.10;;;;;;5067281;28;20029;-64
2022/11/30 00:45:09;;;;;;;21.90;13.35;;;8.50;76.20;;;;;;5065333;28;20025;-64
2022/11/30 00:47:35;;;;;;;20.40;13.30;;;8.60;76.30;;;;;;5074184;28;20043;-64
2022/11/30 00:50:02;;;;;;;21.40;13.90;;;8.60;76.20;;;;;;5066590;28;20025;-65
2022/11/30 00:52:29;;;;;;;21.88;14.23;;;8.60;76.10;;;;;;5062473;28;20048;-64
2022/11/30 00:54:55;;;;;;;22.00;14.23;;;8.60;76.10;;;;;;5064837;28;20053;-64
2022/11/30 00:57:21;;;;;;;26.23;15.13;;;8.50;76.00;;;;;;5055826;28;20100;-64
2022/11/30 00:59:46;;;;;;;22.38;15.23;;;8.60;75.90;;;;;;5073027;28;20017;-65
2022/11/30 01:02:12;;;;;;;25.70;15.60;;;8.50;75.80;;;;;;5063502;28;20033;-64
2022/11/30 01:04:38;;;;;;;28.50;17.13;;;8.50;75.80;;;;;;5059032;28;20025;-64
2022/11/30 01:07:04;;;;;;;30.08;18.60;;;8.50;75.80;;;;;;5065787;28;20037;-64
2022/11/30 01:09:29;;;;;;;29.58;17.17;;;8.50;75.80;;;;;;5064744;28;20032;-65
2022/11/30 01:11:55;;;;;;;31.10;18.35;;;8.40;75.70;;;;;;5064372;28;20032;-64
2022/11/30 01:14:21;;;;;;;30.27;18.67;;;8.40;75.80;;;;;;5064104;28;20021;-64
2022/11/30 01:16:46;;;;;;;31.73;18.17;;;8.40;75.90;;;;;;5068103;28;20507;-65
2022/11/30 01:19:13;;;;;;;33.38;19.25;;;8.40;75.80;;;;;;4948214;28;20087;-63
2022/11/30 01:21:39;;;;;;;33.88;19.55;;;8.40;75.80;;;;;;5045667;28;20033;-64
2022/11/30 01:24:05;;;;;;;33.78;20.55;;;8.40;75.70;;;;;;5068135;28;20025;-63
2022/11/30 01:26:31;;;;;;;38.80;21.50;;;8.30;75.60;;;;;;5068696;28;20021;-63
2022/11/30 01:28:56;;;;;;;32.67;20.35;;;8.30;75.50;;;;;;5062168;28;20510;-63
2022/11/30 01:31:23;;;;;;;37.85;21.58;;;8.30;75.40;;;;;;5043842;28;20033;-63
2022/11/30 01:33:50;;;;;;;34.03;20.40;;;8.30;75.50;;;;;;5060251;28;21503;-65
2022/11/30 01:36:19;;;;;;;35.15;20.73;;;8.20;75.40;;;;;;5059813;28;20017;-64
2022/11/30 01:38:48;;;;;;;35.13;19.95;;;8.20;75.30;;;;;;5060272;28;20060;-65
2022/11/30 01:41:18;;;;;;;39.40;21.80;;;8.20;75.30;;;;;;5062874;28;20088;-64
2022/11/30 01:43:47;;;;;;;35.50;21.50;;;8.20;75.20;;;;;;5065606;28;20067;-64
2022/11/30 01:46:33;;;;;;;36.47;21.50;;;8.10;75.60;;;;;;5054679;28;20029;-63
2022/11/30 01:49:05;;;;;;;35.17;20.33;;;8.10;75.20;;;;;;5058800;28;20056;-63
2022/11/30 01:51:45;;;;;;;38.90;21.55;;;8.10;75.20;;;;;;5065338;28;20020;-64
2022/11/30 01:54:14;;;;;;;34.05;19.98;;;8.00;75.30;;;;;;5060945;28;20705;-63
2022/11/30 01:56:48;;;;;;;34.95;20.17;;;8.00;75.40;;;;;;5068485;28;20044;-63
2022/11/30 01:59:15;;;;;;;39.40;21.77;;;8.00;75.40;;;;;;5058233;28;20113;-63
2022/11/30 02:01:41;;;;;;;39.70;21.05;;;8.00;75.50;;;;;;5067399;28;20047;-63
2022/11/30 02:04:14;;;;;;;37.92;21.40;;;7.90;75.60;;;;;;5065316;28;20033;-63
2022/11/30 02:06:40;;;;;;;34.03;20.38;;;7.90;75.50;;;;;;5051768;28;20059;-65
2022/11/30 02:09:06;;;;;;;39.95;21.92;;;7.90;75.50;;;;;;5065541;28;20036;-65
2022/11/30 02:11:32;;;;;;;38.78;22.90;;;7.90;75.60;;;;;;5053506;28;20052;-65
2022/11/30 02:14:18;;;;;;;37.83;21.63;;;7.90;75.50;;;;;;5058617;28;20099;-64
2022/11/30 02:16:50;;;;;;;36.15;21.40;;;7.90;75.50;;;;;;5060340;28;20025;-65
2022/11/30 02:19:31;;;;;;;33.50;20.73;;;7.90;75.40;;;;;;5064541;28;20053;-65
2022/11/30 02:22:22;;;;;;;33.05;20.77;;;7.90;75.30;;;;;;5060737;28;20044;-63
2022/11/30 02:25:14;;;;;;;37.50;22.10;;;7.90;75.10;;;;;;5066118;28;20025;-63
2022/11/30 02:28:23;;;;;;;32.47;19.83;;;7.90;75.00;;;;;;5057822;28;20025;-63
2022/11/30 02:30:52;;;;;;;34.45;20.55;;;7.80;74.90;;;;;;5047087;28;20056;-63
2022/11/30 02:33:21;;;;;;;33.92;22.58;;;7.80;75.50;;;;;;5061583;28;20051;-64
2022/11/30 02:35:49;;;;;;;34.70;20.75;;;7.80;75.10;;;;;;5063560;28;20051;-63
2022/11/30 02:38:19;;;;;;;31.98;20.45;;;7.80;75.20;;;;;;5064858;28;20086;-64
2022/11/30 02:40:45;;;;;;;37.20;22.15;;;7.70;75.20;;;;;;5060311;28;20025;-64
2022/11/30 02:43:10;;;;;;;36.67;21.75;;;7.80;75.30;;;;;;5063369;28;20017;-64
2022/11/30 02:45:54;;;;;;;33.75;22.02;;;7.70;75.20;;;;;;5062632;28;20714;-65
2022/11/30 02:48:30;;;;;;;35.90;21.13;;;7.70;75.10;;;;;;5062989;28;20029;-63
2022/11/30 02:51:00;;;;;;;33.80;20.60;;;7.70;75.20;;;;;;5061309;28;20022;-65
2022/11/30 02:53:26;;;;;;;33.75;21.13;;;7.70;75.20;;;;;;5054295;28;20032;-64
2022/11/30 02:55:53;;;;;;;36.10;20.80;;;7.70;75.10;;;;;;5058492;28;20021;-64
2022/11/30 02:58:20;;;;;;;33.97;20.60;;;7.70;75.10;;;;;;5037789;28;20024;-65
2022/11/30 03:00:46;;;;;;;35.63;20.85;;;7.70;75.10;;;;;;5064103;28;20032;-64
2022/11/30 03:03:11;;;;;;;32.70;19.40;;;7.60;75.00;;;;;;5064712;28;20027;-64
2022/11/30 03:05:37;;;;;;;34.33;20.38;;;7.60;75.10;;;;;;5062864;28;20045;-63
2022/11/30 03:08:03;;;;;;;35.13;20.23;;;7.60;75.10;;;;;;5061444;28;20044;-65
2022/11/30 03:10:28;;;;;;;35.15;21.23;;;7.60;75.30;;;;;;5048408;28;20028;-63
2022/11/30 03:12:58;;;;;;;30.30;19.20;;;7.60;75.50;;;;;;5060750;28;20048;-64
2022/11/30 03:15:24;;;;;;;34.28;20.20;;;7.60;75.40;;;;;;5053939;28;20032;-65
2022/11/30 03:17:49;;;;;;;35.45;20.40;;;7.60;75.40;;;;;;5064506;28;20529;-64
2022/11/30 03:20:15;;;;;;;34.13;20.13;;;7.60;75.30;;;;;;5064350;28;20068;-65
2022/11/30 03:22:41;;;;;;;31.90;19.20;;;7.60;75.30;;;;;;5065094;28;20024;-64
2022/11/30 03:25:07;;;;;;;31.50;19.77;;;7.60;75.30;;;;;;5058330;28;20162;-64
2022/11/30 03:27:33;;;;;;;33.92;19.45;;;7.60;75.30;;;;;;5056110;28;20021;-62
2022/11/30 03:29:59;;;;;;;34.95;20.45;;;7.60;75.20;;;;;;5056829;28;20534;-63
2022/11/30 03:32:25;;;;;;;32.30;19.15;;;7.60;75.00;;;;;;5051324;28;20025;-63
2022/11/30 03:34:50;;;;;;;29.75;18.45;;;7.60;75.00;;;;;;5054106;28;20021;-63
2022/11/30 03:37:16;;;;;;;34.67;19.75;;;7.60;75.10;;;;;;5060240;28;20727;-63
2022/11/30 03:39:42;;;;;;;31.58;18.50;;;7.60;74.90;;;;;;5051653;28;20022;-63
2022/11/30 03:42:07;;;;;;;37.05;21.48;;;7.60;74.80;;;;;;5064169;28;20042;-64
2022/11/30 03:44:33;;;;;;;33.58;19.52;;;7.60;74.70;;;;;;5053815;28;20029;-64
2022/11/30 03:46:58;;;;;;;35.25;20.00;;;7.50;74.70;;;;;;5054959;28;20024;-62
2022/11/30 03:49:24;;;;;;;29.88;18.65;;;7.50;74.80;;;;;;5055947;28;20089;-64
2022/11/30 03:51:50;;;;;;;35.28;20.50;;;7.50;75.00;;;;;;5067111;28;20047;-62
2022/11/30 03:54:15;;;;;;;32.30;19.65;;;7.50;75.20;;;;;;5059546;28;20503;-63
2022/11/30 03:56:41;;;;;;;36.17;20.08;;;7.50;75.30;;;;;;5053349;28;20384;-63
2022/11/30 03:59:07;;;;;;;33.00;19.05;;;7.50;75.20;;;;;;5060532;28;20033;-63
2022/11/30 04:01:32;;;;;;;34.22;20.58;;;7.50;75.20;;;;;;5060428;28;20037;-63
2022/11/30 04:03:58;;;;;;;32.22;19.10;;;7.50;75.20;;;;;;5063669;28;20156;-64
2022/11/30 04:06:24;;;;;;;30.60;18.52;;;7.40;75.20;;;;;;5070445;28;20025;-65
2022/11/30 04:08:50;;;;;;;30.30;18.52;;;7.50;75.30;;;;;;5067663;28;20036;-63
2022/11/30 04:11:16;;;;;;;35.58;20.45;;;7.50;75.40;;;;;;5067784;28;20029;-63
2022/11/30 04:13:42;;;;;;;32.42;19.45;;;7.50;75.40;;;;;;5070129;28;20049;-64
2022/11/30 04:16:08;;;;;;;29.75;19.40;;;7.50;75.40;;;;;;5049669;28;20068;-64
2022/11/30 04:18:36;;;;;;;32.03;19.10;;;7.50;75.40;;;;;;5063266;28;20029;-66
2022/11/30 04:21:03;;;;;;;33.38;19.52;;;7.50;75.60;;;;;;5062892;28;20043;-65
2022/11/30 04:23:31;;;;;;;35.47;20.25;;;7.50;75.60;;;;;;5066822;28;20055;-65
2022/11/30 04:25:57;;;;;;;29.35;17.98;;;7.50;75.60;;;;;;5065055;28;21515;-66
2022/11/30 04:28:23;;;;;;;32.47;19.73;;;7.50;75.60;;;;;;5060222;28;20040;-67
2022/11/30 04:30:49;;;;;;;32.70;19.88;;;7.50;75.50;;;;;;5067249;28;20025;-64
2022/11/30 04:33:15;;;;;;;31.42;19.98;;;7.50;75.40;;;;;;5044915;28;20048;-63
2022/11/30 04:35:47;;;;;;;30.63;18.95;;;7.50;75.40;;;;;;5057863;28;20032;-64
2022/11/30 04:38:12;;;;;;;26.75;17.88;;;7.50;75.30;;;;;;5063540;28;20128;-64
2022/11/30 04:40:39;;;;;;;33.00;19.15;;;7.50;75.30;;;;;;5059972;28;20503;-63
2022/11/30 04:43:05;;;;;;;30.02;18.40;;;7.50;75.20;;;;;;5067595;28;20156;-64
2022/11/30 04:45:31;;;;;;;32.05;19.30;;;7.50;75.20;;;;;;5064162;28;20032;-64
2022/11/30 04:47:57;;;;;;;33.45;20.52;;;7.50;75.20;;;;;;5067386;28;20060;-63
2022/11/30 04:50:23;;;;;;;30.33;19.05;;;7.50;75.20;;;;;;5066132;28;20029;-65
2022/11/30 04:52:48;;;;;;;35.10;20.00;;;7.50;75.30;;;;;;5068451;28;20079;-63
2022/11/30 04:55:18;;;;;;;33.05;19.58;;;7.50;75.70;;;;;;5064391;28;20083;-63
2022/11/30 04:57:47;;;;;;;37.58;19.42;;;7.50;75.50;;;;;;5063490;28;20040;-63
2022/11/30 05:00:14;;;;;;;32.65;19.80;;;7.50;75.50;;;;;;5063251;28;20037;-64
2022/11/30 05:02:40;;;;;;;34.28;20.45;;;7.50;75.40;;;;;;5064359;28;20044;-64
2022/11/30 05:05:06;;;;;;;34.72;19.70;;;7.50;75.50;;;;;;5062312;28;20071;-64
2022/11/30 05:07:32;;;;;;;30.42;19.27;;;7.50;75.50;;;;;;5061399;28;20052;-65
2022/11/30 05:09:57;;;;;;;33.42;19.63;;;7.50;75.40;;;;;;5066577;28;20124;-62
2022/11/30 05:12:23;;;;;;;33.45;20.08;;;7.50;75.40;;;;;;5057128;28;20572;-63
2022/11/30 05:14:49;;;;;;;31.23;18.80;;;7.50;75.20;;;;;;5058265;28;20060;-64
2022/11/30 05:17:15;;;;;;;30.27;18.88;;;7.50;75.30;;;;;;5063772;28;20025;-64
2022/11/30 05:19:40;;;;;;;34.20;18.92;;;7.50;75.40;;;;;;5070117;28;20024;-63
2022/11/30 05:22:06;;;;;;;31.65;18.88;;;7.50;75.40;;;;;;5068758;28;20070;-63
2022/11/30 05:24:32;;;;;;;39.70;21.20;;;7.50;75.30;;;;;;5069661;28;20078;-64
2022/11/30 05:26:58;;;;;;;35.08;20.67;;;7.50;75.10;;;;;;5058622;28;20138;-64
2022/11/30 05:29:23;;;;;;;34.97;20.90;;;7.50;75.00;;;;;;5065430;28;20095;-63
2022/11/30 05:31:49;;;;;;;35.17;21.25;;;7.40;74.90;;;;;;5065013;28;20032;-63
2022/11/30 05:34:15;;;;;;;33.20;19.23;;;7.40;75.10;;;;;;5057845;28;20029;-66
2022/11/30 05:36:40;;;;;;;32.75;19.00;;;7.40;75.30;;;;;;5064868;28;20474;-63
2022/11/30 05:39:06;;;;;;;37.35;20.30;;;7.40;75.50;;;;;;5060698;28;20037;-64
2022/11/30 05:41:32;;;;;;;35.50;19.33;;;7.40;75.50;;;;;;5041323;28;20044;-64
2022/11/30 05:43:57;;;;;;;32.38;19.35;;;7.40;75.50;;;;;;5062727;28;20035;-64
2022/11/30 05:46:23;;;;;;;30.45;18.10;;;7.40;75.50;;;;;;5060621;28;20032;-64
2022/11/30 05:48:49;;;;;;;33.05;19.65;;;7.40;75.50;;;;;;5068372;28;20040;-64
2022/11/30 05:51:17;;;;;;;32.80;19.45;;;7.40;75.50;;;;;;5062355;28;20025;-65
2022/11/30 05:53:44;;;;;;;33.33;18.98;;;7.40;75.50;;;;;;5061446;28;20048;-64
2022/11/30 05:56:14;;;;;;;32.35;19.60;;;7.40;75.50;;;;;;5069197;28;20058;-64
2022/11/30 05:58:40;;;;;;;33.40;19.17;;;7.40;75.50;;;;;;5061675;28;20033;-64
2022/11/30 06:01:06;;;;;;;49.10;20.35;;;7.40;75.50;;;;;;5066199;28;20041;-64
2022/11/30 06:03:34;;;;;;;34.55;20.02;;;7.40;75.40;;;;;;5058617;28;20508;-64
2022/11/30 06:06:00;;;;;;;32.80;19.55;;;7.40;75.30;;;;;;5058905;28;20489;-63
2022/11/30 06:08:26;;;;;;;33.75;19.40;;;7.40;75.30;;;;;;5059475;28;20033;-63
2022/11/30 06:10:52;;;;;;;32.60;18.70;;;7.30;75.30;;;;;;5056179;28;20056;-67
2022/11/30 06:13:19;;;;;;;32.45;18.33;;;7.30;75.40;;;;;;5062305;28;20107;-65
2022/11/30 06:15:45;;;;;;;32.90;17.80;;;7.30;75.40;;;;;;5065244;28;20049;-63
2022/11/30 06:18:12;;;;;;;33.45;18.95;;;7.30;75.40;;;;;;5069031;28;20032;-66
2022/11/30 06:20:38;;;;;;;34.42;18.88;;;7.30;76.10;;;;;;5066130;28;20037;-63
2022/11/30 06:23:04;;;;;;;32.25;18.40;;;7.30;75.40;;;;;;5064044;28;20035;-63
2022/11/30 06:25:29;;;;;;;33.47;18.15;;;7.30;75.40;;;;;;5062832;28;20033;-65
2022/11/30 06:27:55;;;;;;;31.10;19.02;;;7.30;75.50;;;;;;5066470;28;20132;-63
2022/11/30 06:30:21;;;;;;;44.42;24.50;;;7.30;75.70;;;;;;5068128;28;20032;-67
2022/11/30 06:32:49;;;;;;;32.05;19.27;;;7.30;75.80;;;;;;5056073;28;20027;-64
2022/11/30 06:35:15;;;;;;;30.75;18.13;;;7.30;75.70;;;;;;5061094;28;20076;-64
2022/11/30 06:37:41;;;;;;;33.47;19.00;;;7.30;75.70;;;;;;5060722;28;20033;-63
2022/11/30 06:40:09;;;;;;;33.45;18.65;;;7.30;75.50;;;;;;5060327;28;20033;-65
2022/11/30 06:42:36;;;;;;;32.92;18.55;;;7.30;75.40;;;;;;5062007;28;20029;-63
2022/11/30 06:45:02;;;;;;;45.55;26.92;;;7.30;75.40;;;;;;5060592;28;20409;-64
2022/11/30 06:47:27;;;;;;;34.38;19.98;;;7.30;75.40;;;;;;5066733;28;20032;-64
2022/11/30 06:49:53;;;;;;;45.42;24.80;;;7.30;75.40;;;;;;5065739;28;20043;-64
2022/11/30 06:52:19;;;;;;;35.92;19.90;;;7.30;75.40;;;;;;5057943;28;20028;-64
2022/11/30 06:54:45;;;;;;;36.15;18.88;;;7.30;75.40;;;;;;5059534;28;20380;-64
2022/11/30 06:57:10;;;;;;;35.90;20.63;;;7.30;75.40;;;;;;5068577;28;20033;-66
2022/11/30 06:59:41;;;;;;;44.85;24.75;;;7.30;75.50;;;;;;5060324;28;20569;-65
2022/11/30 07:02:11;;;;;;;43.70;21.90;;;7.30;75.70;;;;;;5054198;28;20634;-65
2022/11/30 07:04:37;;;;;;;37.22;20.58;;;7.30;75.80;;;;;;5069608;28;20373;-64
2022/11/30 07:07:03;;;;;;;77.22;38.83;;;7.30;75.80;;;;;;5064151;28;20063;-63
2022/11/30 07:09:29;;;;;;;46.17;24.75;;;7.30;75.80;;;;;;5067560;28;20055;-62
2022/11/30 07:11:55;;;;;;;38.13;21.05;;;7.30;75.90;;;;;;5060347;28;20024;-65
2022/11/30 07:14:20;;;;;;;35.95;19.33;;;7.40;75.90;;;;;;5060236;28;20461;-65
2022/11/30 07:16:46;;;;;;;42.38;20.90;;;7.40;75.90;;;;;;5041476;28;20025;-64
2022/11/30 07:19:11;;;;;;;36.70;19.42;;;7.40;75.90;;;;;;4954723;28;20037;-63
2022/11/30 07:21:37;;;;;;;34.42;18.20;;;7.40;75.90;;;;;;5060153;28;20049;-64
2022/11/30 07:26:47;;;;;;;36.05;19.00;;;7.50;75.80;;;;;;5060623;28;20088;-62
2022/11/30 07:29:12;;;;;;;36.00;19.02;;;7.50;75.80;;;;;;5065442;28;20024;-63
2022/11/30 07:31:38;;;;;;;37.45;19.77;;;7.50;75.90;;;;;;5062975;28;20048;-63
2022/11/30 07:34:06;;;;;;;38.33;21.00;;;7.60;76.00;;;;;;5063302;28;20048;-62
2022/11/30 07:36:33;;;;;;;39.95;21.20;;;7.60;75.90;;;;;;5063992;28;20029;-62
2022/11/30 07:38:59;;;;;;;39.20;21.08;;;7.60;75.70;;;;;;5056858;28;20048;-62
2022/11/30 07:41:25;;;;;;;42.53;23.60;;;7.60;75.50;;;;;;5057440;28;20445;-62
2022/11/30 07:43:51;;;;;;;51.35;26.63;;;7.70;75.60;;;;;;5043327;28;20033;-64
2022/11/30 07:46:17;;;;;;;40.95;22.27;;;7.60;75.50;;;;;;5066087;28;20027;-64
2022/11/30 07:48:44;;;;;;;41.03;20.65;;;7.70;75.60;;;;;;5066804;28;20031;-64
2022/11/30 07:51:13;;;;;;;40.70;21.17;;;7.70;75.60;;;;;;5064984;28;20185;-64
2022/11/30 07:53:39;;;;;;;39.83;21.33;;;7.70;75.50;;;;;;5066702;28;20044;-63
2022/11/30 07:56:07;;;;;;;47.00;22.45;;;7.70;75.40;;;;;;5060808;28;20029;-64
2022/11/30 07:58:33;;;;;;;43.10;23.85;;;7.80;75.40;;;;;;5066880;28;20036;-64
2022/11/30 08:01:04;;;;;;;44.10;22.83;;;7.80;75.40;;;;;;5067683;28;20498;-64
2022/11/30 08:03:31;;;;;;;45.58;23.65;;;7.80;75.20;;;;;;5062424;28;20033;-64
2022/11/30 08:06:06;;;;;;;47.35;24.77;;;7.80;75.30;;;;;;5049638;28;20399;-63
2022/11/30 08:08:33;;;;;;;47.47;24.88;;;7.80;75.30;;;;;;5060927;28;20551;-64
2022/11/30 08:10:59;;;;;;;42.95;22.33;;;7.80;75.40;;;;;;5059924;28;20028;-64
2022/11/30 08:13:26;;;;;;;40.00;22.17;;;7.80;75.30;;;;;;5063553;28;20514;-64
2022/11/30 08:15:52;;;;;;;46.20;24.23;;;7.80;75.20;;;;;;5066026;28;20033;-64
2022/11/30 08:18:18;;;;;;;44.85;23.67;;;7.80;75.10;;;;;;5053105;28;20040;-64
2022/11/30 08:20:47;;;;;;;91.88;49.33;;;7.80;75.20;;;;;;5057038;28;20104;-64
2022/11/30 08:23:12;;;;;;;54.97;31.83;;;7.80;75.20;;;;;;5056823;28;20111;-63
2022/11/30 08:25:38;;;;;;;84.80;44.00;;;7.90;75.20;;;;;;5063534;28;20037;-64
2022/11/30 08:28:04;;;;;;;50.72;28.58;;;7.90;75.20;;;;;;5068734;28;20032;-64
2022/11/30 08:30:30;;;;;;;58.85;33.33;;;7.90;75.80;;;;;;5069280;28;20018;-64
2022/11/30 08:32:56;;;;;;;68.85;39.65;;;7.90;75.10;;;;;;5032351;28;20205;-64
2022/11/30 08:35:22;;;;;;;63.13;35.03;;;7.90;75.10;;;;;;5053568;28;20047;-64
2022/11/30 08:37:47;;;;;;;40.72;23.33;;;7.90;75.10;;;;;;5049467;28;20037;-64
2022/11/30 08:40:13;;;;;;;42.80;23.33;;;7.90;75.10;;;;;;5067186;28;20029;-64
2022/11/30 08:42:39;;;;;;;40.03;22.77;;;7.90;74.90;;;;;;5063563;28;20043;-64
2022/11/30 08:45:05;;;;;;;42.45;21.05;;;7.90;74.80;;;;;;5065506;28;20037;-64
2022/11/30 08:47:31;;;;;;;43.75;22.13;;;7.90;74.80;;;;;;5060829;28;20029;-64
2022/11/30 08:49:57;;;;;;;41.60;22.85;;;7.90;74.70;;;;;;5061458;28;20048;-65
2022/11/30 08:52:23;;;;;;;39.53;22.00;;;7.90;74.50;;;;;;5069149;28;20029;-64
2022/11/30 08:54:49;;;;;;;40.47;22.05;;;7.90;74.60;;;;;;5049693;28;20060;-64
2022/11/30 08:57:16;;;;;;;41.65;23.30;;;7.90;74.80;;;;;;5057983;28;20044;-65
2022/11/30 08:59:42;;;;;;;37.17;21.42;;;7.80;74.90;;;;;;5056399;28;20017;-64
2022/11/30 09:02:10;;;;;;;42.90;22.52;;;7.90;75.00;;;;;;5066661;28;20490;-64
2022/11/30 09:04:36;;;;;;;40.60;21.17;;;7.90;75.20;;;;;;5055712;28;20029;-64
2022/11/30 09:07:02;;;;;;;40.95;21.67;;;7.90;75.30;;;;;;5069611;28;20033;-64
2022/11/30 09:09:28;;;;;;;44.47;24.08;;;7.90;75.40;;;;;;5068863;28;20065;-62
2022/11/30 09:11:54;;;;;;;42.25;23.35;;;7.90;75.50;;;;;;5053357;28;20032;-63
2022/11/30 09:14:19;;;;;;;43.78;23.60;;;8.00;75.60;;;;;;5060185;28;20060;-63
2022/11/30 09:16:45;;;;;;;38.85;22.05;;;8.10;75.70;;;;;;5057080;28;20026;-63
2022/11/30 09:19:11;;;;;;;44.85;22.70;;;8.10;75.70;;;;;;5055971;28;20100;-63
2022/11/30 09:21:36;;;;;;;44.05;22.02;;;8.20;75.60;;;;;;5050116;28;20045;-63
2022/11/30 09:24:02;;;;;;;41.47;21.92;;;8.20;75.40;;;;;;5063907;28;20025;-63
2022/11/30 09:26:28;;;;;;;44.25;22.63;;;8.20;75.20;;;;;;5060524;28;20021;-63
2022/11/30 09:28:54;;;;;;;42.38;22.90;;;8.30;75.20;;;;;;5060118;28;20054;-63
2022/11/30 09:31:22;;;;;;;40.58;21.25;;;8.30;75.00;;;;;;5050151;28;20021;-63
2022/11/30 09:33:48;;;;;;;38.50;21.30;;;8.30;74.90;;;;;;5059624;28;20053;-63
2022/11/30 09:36:16;;;;;;;41.42;21.65;;;8.30;74.80;;;;;;5062120;28;20086;-63
2022/11/30 09:38:42;;;;;;;41.22;21.98;;;8.30;74.60;;;;;;5060759;28;20039;-63
2022/11/30 09:41:32;;;;;;;33.63;20.10;;;8.30;74.60;;;;;;5059167;28;20088;-63
2022/11/30 09:44:22;;;;;;;41.97;21.52;;;8.40;74.90;;;;;;5060381;28;20036;-63
2022/11/30 09:47:11;;;;;;;37.42;20.25;;;8.40;74.70;;;;;;5057980;28;20036;-63
2022/11/30 09:49:45;;;;;;;38.22;20.73;;;8.40;74.70;;;;;;5060131;28;20028;-63
2022/11/30 09:52:29;;;;;;;38.63;20.67;;;8.40;74.60;;;;;;5056075;28;20029;-63
2022/11/30 09:54:55;;;;;;;32.67;18.00;;;8.40;74.60;;;;;;5056591;28;20037;-63
2022/11/30 09:57:39;;;;;;;36.60;18.73;;;8.50;74.70;;;;;;5059266;28;20040;-63
2022/11/30 10:00:15;;;;;;;34.37;18.80;;;8.50;74.80;;;;;;5062491;28;20044;-64
2022/11/30 10:02:41;;;;;;;34.83;18.98;;;8.50;74.80;;;;;;5059156;28;20303;-64
2022/11/30 10:05:17;;;;;;;34.47;20.05;;;8.50;74.90;;;;;;5057905;28;20080;-64
2022/11/30 10:08:27;;;;;;;33.30;19.80;;;8.60;74.90;;;;;;5055667;28;20028;-62
2022/11/30 10:11:11;;;;;;;42.55;21.05;;;8.60;74.60;;;;;;4951666;29;20051;-64
2022/11/30 10:13:54;;;;;;;37.13;21.70;;;8.60;74.50;;;;;;4946741;29;20044;-65
2022/11/30 10:16:39;;;;;;;33.63;18.67;;;8.60;74.40;;;;;;4946480;29;20027;-64
2022/11/30 10:19:32;;;;;;;36.58;18.73;;;8.60;74.20;;;;;;4955050;29;20043;-63
2022/11/30 10:21:58;;;;;;;37.47;20.67;;;8.60;74.20;;;;;;4948583;29;20055;-63
2022/11/30 10:24:35;;;;;;;34.88;19.40;;;8.60;74.50;;;;;;4943437;29;20043;-63
2022/11/30 10:27:16;;;;;;;38.28;19.83;;;8.60;74.60;;;;;;4946934;29;20047;-63
2022/11/30 10:29:42;;;;;;;36.30;19.00;;;8.60;74.60;;;;;;4952257;29;20069;-62
2022/11/30 10:32:20;;;;;;;33.72;19.73;;;8.60;74.60;;;;;;4955573;29;20035;-63
2022/11/30 10:34:53;;;;;;;36.97;22.48;;;8.60;74.60;;;;;;4954510;29;20035;-64
2022/11/30 10:37:25;;;;;;;33.67;20.33;;;8.60;74.50;;;;;;4948877;29;20072;-64
2022/11/30 10:40:02;;;;;;;70.78;43.30;;;8.60;74.50;;;;;;4944800;29;20076;-64
2022/11/30 10:43:12;;;;;;;48.88;30.20;;;8.60;74.50;;;;;;4952701;29;20089;-64
2022/11/30 10:45:43;;;;;;;34.80;20.95;;;8.70;74.50;;;;;;4945208;28;20045;-64
2022/11/30 10:48:26;;;;;;;34.10;19.80;;;8.70;74.40;;;;;;5063588;28;20390;-64
2022/11/30 10:50:53;;;;;;;27.42;16.45;;;8.70;74.40;;;;;;5057141;28;20028;-64
2022/11/30 10:53:18;;;;;;;36.45;21.23;;;8.70;74.50;;;;;;5062727;28;20059;-64
2022/11/30 10:55:57;;;;;;;27.75;16.27;;;8.70;74.50;;;;;;5065426;28;20048;-64
2022/11/30 10:58:28;;;;;;;23.60;14.52;;;8.70;74.20;;;;;;5046052;28;20035;-64
2022/11/30 11:01:03;;;;;;;24.95;14.20;;;8.70;74.20;;;;;;5064771;28;20044;-63
2022/11/30 11:03:30;;;;;;;26.50;15.35;;;8.70;74.10;;;;;;5062829;28;20085;-63
2022/11/30 11:06:19;;;;;;;25.75;14.38;;;8.70;74.00;;;;;;5045322;28;20033;-63
2022/11/30 11:08:45;;;;;;;26.55;14.98;;;8.70;73.90;;;;;;5061364;28;20029;-63
2022/11/30 11:11:31;;;;;;;26.63;13.70;;;8.70;74.10;;;;;;5031090;28;20059;-63
2022/11/30 11:14:18;;;;;;;26.75;13.98;;;8.70;74.10;;;;;;5060808;28;20168;-63
2022/11/30 11:16:54;;;;;;;25.92;13.63;;;8.70;74.30;;;;;;5052109;28;20044;-64
2022/11/30 11:19:41;;;;;;;22.48;12.65;;;8.70;74.30;;;;;;4965566;28;20039;-64
2022/11/30 11:22:22;;;;;;;22.08;12.77;;;8.80;73.90;;;;;;5063133;28;20480;-64
2022/11/30 11:24:52;;;;;;;24.10;13.60;;;8.80;74.10;;;;;;5059454;28;20035;-64
2022/11/30 11:27:29;;;;;;;26.60;14.35;;;8.80;74.20;;;;;;5069592;28;20021;-64
2022/11/30 11:30:27;;;;;;;23.67;13.25;;;8.80;74.20;;;;;;5061872;28;20063;-63
2022/11/30 11:33:22;;;;;;;35.15;19.08;;;8.80;74.00;;;;;;5062188;28;20411;-63
2022/11/30 11:35:53;;;;;;;26.38;14.18;;;8.80;74.00;;;;;;5061538;28;20041;-63
2022/11/30 11:38:22;;;;;;;24.15;13.88;;;8.80;74.10;;;;;;5060089;28;20052;-65
2022/11/30 11:41:30;;;;;;;22.85;12.75;;;8.90;74.20;;;;;;5062341;28;20048;-63
2022/11/30 11:44:20;;;;;;;23.10;13.35;;;8.90;73.90;;;;;;5068206;28;20025;-65
2022/11/30 11:46:56;;;;;;;23.35;12.57;;;8.90;74.10;;;;;;5056125;28;20033;-65
2022/11/30 11:49:23;;;;;;;25.65;13.98;;;8.90;73.80;;;;;;5065929;28;20045;-65
2022/11/30 11:52:02;;;;;;;24.20;13.38;;;8.90;73.80;;;;;;5064010;28;20059;-64
2022/11/30 11:54:57;;;;;;;25.55;13.30;;;8.90;73.80;;;;;;5061028;28;20072;-65
2022/11/30 11:57:43;;;;;;;23.50;12.82;;;8.90;73.90;;;;;;5068259;28;20077;-64
2022/11/30 12:00:17;;;;;;;24.30;13.30;;;8.90;74.10;;;;;;5039414;28;20028;-65
2022/11/30 12:03:05;;;;;;;18.90;9.48;;;9.00;74.00;;;;;;5067212;28;20060;-65
2022/11/30 12:05:43;;;;;;;22.23;12.82;;;9.00;73.70;;;;;;5035880;28;20029;-64
2022/11/30 12:08:34;;;;;;;25.55;13.32;;;9.00;73.80;;;;;;5055988;28;20040;-64
2022/11/30 12:11:06;;;;;;;22.77;13.93;;;9.00;73.60;;;;;;5060629;28;20051;-65
2022/11/30 12:13:40;;;;;;;23.67;12.65;;;9.00;73.80;;;;;;5056600;28;20028;-64
2022/11/30 12:16:15;;;;;;;25.42;13.35;;;9.00;73.80;;;;;;5061596;28;20035;-64
2022/11/30 12:18:54;;;;;;;23.42;13.30;;;9.00;74.00;;;;;;5063407;28;20032;-63
2022/11/30 12:21:26;;;;;;;22.75;12.23;;;9.00;73.90;;;;;;5064194;28;20056;-63
2022/11/30 12:23:57;;;;;;;21.83;12.30;;;9.00;74.00;;;;;;5059537;28;20025;-63
2022/11/30 12:26:32;;;;;;;22.90;13.05;;;9.10;73.90;;;;;;5059674;28;20056;-65
2022/11/30 12:28:58;;;;;;;;;;;9.10;73.90;;;;;;5062804;28;20025;-63
2022/11/30 12:31:44;;;;;;;20.85;12.52;;;9.10;73.60;;;;;;5071289;28;19908;-64
2022/11/30 12:34:16;;;;;;;20.67;11.50;;;9.10;73.60;;;;;;5055599;28;20037;-63
2022/11/30 12:36:59;;;;;;;21.58;13.02;;;9.20;73.60;;;;;;5064101;28;20017;-64
2022/11/30 12:39:51;;;;;;;22.38;12.30;;;9.20;73.50;;;;;;5061166;28;20028;-66
2022/11/30 12:42:22;;;;;;;22.40;11.45;;;9.20;73.30;;;;;;5032536;28;20059;-64
2022/11/30 12:45:06;;;;;;;21.58;13.35;;;9.20;73.60;;;;;;5072311;28;20033;-63
2022/11/30 12:47:54;;;;;;;21.23;12.82;;;9.20;73.50;;;;;;5062548;28;20025;-63
2022/11/30 12:50:28;;;;;;;19.02;10.93;;;9.30;73.40;;;;;;5060882;28;20032;-63
2022/11/30 12:52:57;;;;;;;20.23;11.43;;;9.20;73.40;;;;;;5060618;28;20083;-63
2022/11/30 12:55:23;;;;;;;22.67;12.43;;;9.30;73.20;;;;;;5067890;28;20071;-64